Alyeska Resort
Max's Hourly Weather Roundup
ALYESKA_MAX 5/6/2016
Click Here for Graph

        DATE  TIME   Air  Wind  Wind  Wind  BATT   Rel
                    Temp   Spd   Dir  Gust  Volt  Hum%
                      F   MPH   AVG   MPH   AVG   AVG

    5/6/2016 04:00    31    14    86    37 12.79    97
    5/6/2016 03:00    31    17    87    43 12.81    98
    5/6/2016 02:00    30    11   139    40 12.83    99
    5/6/2016 01:00    30     9   162    38 12.87   100
    5/5/2016 24:00    30     7   148    42 12.91   100
    5/5/2016 23:00    30     9   153    34 13.00   100
    5/5/2016 22:00    30    12   148    46 13.16    98
    5/5/2016 21:00    31    18   100    60 13.71    97
    5/5/2016 20:00    30    12   165    39 13.91    98
    5/5/2016 19:00    31    12   199    37 13.90    97
    5/5/2016 18:00    31    12   170    40 13.89    94
    5/5/2016 17:00    31    13   142    35 13.88    92
    5/5/2016 16:00    30    10   196    28 13.86    96
    5/5/2016 15:00    30    10   105    31 13.84    96
    5/5/2016 14:00    30     9   126    32 13.83    96
    5/5/2016 13:00    30    11    98    38 13.80    97
    5/5/2016 12:00    30    11    93    34 13.75    94
    5/5/2016 11:00    30    18    71    46 13.69    96
    5/5/2016 10:00    30    12    99    40 13.65    97
    5/5/2016 09:00    29    10    77    34 13.65    98
    5/5/2016 08:00    29     5   165    14 13.38    98
    5/5/2016 07:00    29    10    82    28 12.85    97
    5/5/2016 06:00    29    11    89    34 12.79    96
    5/5/2016 05:00    29    10    77    35 12.80    97


Click Here for Graph